Time;durP1;ratioP1;P1;durP2;ratioP2;P2;SDS_P1;SDS_P2;PMS_P1;PMS_P2;Temp;Humidity;BMP_temperature;BMP_pressure;BME280_temperature;BME280_humidity;BME280_pressure;Samples;Min_cycle;Max_cycle;Signal;HPM_P1;HPM_P2
2022/10/26 00:02:26;;;;;;;258.47;88.17;;;9.40;99.90;;;;;;10393890;28;20037;-80
2022/10/26 00:07:29;;;;;;;170.70;80.30;;;9.30;99.90;;;;;;10405209;28;20057;-82
2022/10/26 00:12:29;;;;;;;282.63;97.77;;;9.20;99.90;;;;;;10403297;28;20107;-80
2022/10/26 00:17:30;;;;;;;186.00;89.93;;;9.20;99.90;;;;;;10402322;28;20152;-82
2022/10/26 00:22:30;;;;;;;108.23;60.80;;;9.20;99.90;;;;;;10401432;28;20160;-80
2022/10/26 00:27:33;;;;;;;106.30;59.03;;;9.10;99.90;;;;;;10388141;28;20543;-81
2022/10/26 00:32:33;;;;;;;97.50;52.80;;;9.10;99.90;;;;;;10404791;28;20112;-80
2022/10/26 00:37:34;;;;;;;280.47;79.77;;;9.00;99.90;;;;;;10403643;28;20107;-82
2022/10/26 00:42:34;;;;;;;207.93;77.07;;;8.70;99.90;;;;;;10404364;28;20026;-80
2022/10/26 00:47:41;;;;;;;832.93;151.63;;;8.70;99.90;;;;;;10411287;28;20473;-80
2022/10/26 00:52:42;;;;;;;678.83;132.63;;;8.60;99.90;;;;;;10405947;28;20036;-80
2022/10/26 00:57:42;;;;;;;448.63;114.00;;;8.50;99.90;;;;;;10406137;28;20037;-80
2022/10/26 01:02:46;;;;;;;224.10;88.53;;;8.50;99.90;;;;;;10410122;28;20057;-82
2022/10/26 01:07:47;;;;;;;295.17;101.60;;;8.50;99.90;;;;;;10410281;28;20112;-83
2022/10/26 01:12:48;;;;;;;300.70;100.77;;;8.60;99.90;;;;;;10406924;28;20029;-80
2022/10/26 01:18:17;;;;;;;306.80;102.47;;;8.60;99.90;;;;;;10406364;28;20041;-82
2022/10/26 01:23:47;;;;;;;158.93;74.20;;;8.50;99.90;;;;;;10404928;28;20164;-79
2022/10/26 01:29:07;;;;;;;192.33;81.37;;;8.60;99.90;;;;;;10410235;28;20464;-80
2022/10/26 01:34:13;;;;;;;332.13;108.87;;;8.50;99.90;;;;;;10399828;28;20064;-81
2022/10/26 01:39:23;;;;;;;212.13;79.87;;;8.60;99.90;;;;;;10402279;28;20045;-80
2022/10/26 01:44:41;;;;;;;116.57;61.27;;;8.60;99.90;;;;;;10399164;28;20034;-80
2022/10/26 01:49:54;;;;;;;90.90;49.90;;;8.70;99.90;;;;;;10398284;28;20040;-80
2022/10/26 01:55:25;;;;;;;112.67;58.27;;;8.70;99.90;;;;;;10409123;28;20048;-80
2022/10/26 02:00:25;;;;;;;199.23;73.27;;;8.60;99.90;;;;;;10403724;28;20057;-80
2022/10/26 02:05:38;;;;;;;105.50;57.33;;;8.60;99.90;;;;;;10407866;28;20387;-79
2022/10/26 02:10:57;;;;;;;108.20;48.30;;;8.50;99.90;;;;;;10387153;28;20049;-80
2022/10/26 02:16:09;;;;;;;177.90;63.30;;;8.30;99.90;;;;;;10409753;28;20048;-79
2022/10/26 02:21:19;;;;;;;178.03;55.67;;;8.20;99.90;;;;;;10398874;28;20040;-79
2022/10/26 02:26:22;;;;;;;222.20;57.97;;;8.20;99.90;;;;;;10408504;28;20033;-79
2022/10/26 02:31:24;;;;;;;192.53;55.70;;;8.10;99.90;;;;;;10403590;28;20053;-80
2022/10/26 02:36:29;;;;;;;224.33;71.20;;;8.10;99.90;;;;;;10406498;28;20555;-79
2022/10/26 02:41:32;;;;;;;123.88;56.75;;;8.00;99.90;;;;;;10405543;28;20037;-79
2022/10/26 02:46:33;;;;;;;242.20;75.17;;;8.00;99.90;;;;;;10407779;28;20065;-79
2022/10/26 02:51:36;;;;;;;368.30;92.03;;;8.00;99.90;;;;;;10398650;28;20552;-80
2022/10/26 02:56:46;;;;;;;183.30;69.50;;;8.00;99.90;;;;;;10407077;28;20076;-80
2022/10/26 03:01:49;;;;;;;490.60;107.87;;;8.10;99.90;;;;;;10395727;28;20536;-79
2022/10/26 03:06:53;;;;;;;419.67;103.33;;;8.10;99.90;;;;;;10396281;28;20049;-79
2022/10/26 03:11:54;;;;;;;237.30;84.20;;;8.00;99.90;;;;;;10402516;28;20040;-79
2022/10/26 03:16:54;;;;;;;223.47;79.50;;;8.00;99.90;;;;;;10403092;28;20461;-80
2022/10/26 03:21:55;;;;;;;262.33;83.03;;;8.00;99.90;;;;;;10397069;28;20041;-81
2022/10/26 03:26:55;;;;;;;203.37;73.57;;;7.90;99.90;;;;;;10388994;28;20048;-79
2022/10/26 03:31:56;;;;;;;116.37;54.57;;;7.90;99.90;;;;;;10400130;28;20033;-80
2022/10/26 03:36:57;;;;;;;160.13;62.03;;;8.00;99.90;;;;;;10402793;28;20038;-81
2022/10/26 03:41:58;;;;;;;233.17;74.40;;;7.90;99.90;;;;;;10401632;28;20615;-80
2022/10/26 03:46:58;;;;;;;190.63;67.80;;;8.00;99.90;;;;;;10391900;28;20022;-80
2022/10/26 03:51:59;;;;;;;125.07;55.83;;;8.00;99.90;;;;;;10403518;28;20036;-80
2022/10/26 03:56:59;;;;;;;82.30;46.37;;;7.90;99.90;;;;;;10391546;28;20473;-79
2022/10/26 04:02:00;;;;;;;91.53;51.80;;;7.80;99.90;;;;;;10397829;28;20035;-80
2022/10/26 04:07:00;;;;;;;899.03;140.27;;;7.80;99.90;;;;;;10391367;28;20489;-80
2022/10/26 04:12:01;;;;;;;603.53;128.87;;;7.60;99.90;;;;;;10404439;28;20056;-80
2022/10/26 04:17:01;;;;;;;635.73;131.03;;;7.50;99.90;;;;;;10402647;28;20095;-80
2022/10/26 04:22:02;;;;;;;124.67;53.57;;;7.40;99.90;;;;;;10384922;28;20100;-79
2022/10/26 04:27:02;;;;;;;236.20;69.57;;;7.40;99.90;;;;;;10403872;28;20029;-80
2022/10/26 04:32:03;;;;;;;251.33;70.40;;;7.50;99.90;;;;;;10402529;28;20030;-79
2022/10/26 04:37:04;;;;;;;69.10;39.13;;;7.60;99.90;;;;;;10396817;28;20539;-80
2022/10/26 04:42:04;;;;;;;193.33;54.10;;;7.60;99.90;;;;;;10404473;28;20037;-80
2022/10/26 04:47:05;;;;;;;77.03;41.97;;;7.50;99.90;;;;;;10404539;28;20055;-79
2022/10/26 04:52:06;;;;;;;73.37;38.93;;;7.60;99.90;;;;;;10400396;28;20440;-80
2022/10/26 04:57:06;;;;;;;109.27;43.50;;;7.50;99.90;;;;;;10393392;28;20025;-80
2022/10/26 05:02:07;;;;;;;73.30;38.57;;;7.40;99.90;;;;;;10388809;28;20133;-82
2022/10/26 05:07:07;;;;;;;241.83;60.17;;;7.20;99.90;;;;;;10400226;28;20053;-81
2022/10/26 05:12:08;;;;;;;99.10;47.50;;;7.20;99.90;;;;;;10386022;28;20040;-81
2022/10/26 05:17:08;;;;;;;134.90;51.07;;;7.20;99.90;;;;;;10402733;28;20532;-81
2022/10/26 05:22:09;;;;;;;130.33;47.33;;;7.20;99.90;;;;;;10402245;28;20045;-80
2022/10/26 05:27:10;;;;;;;74.93;39.30;;;7.10;99.90;;;;;;10394811;28;20033;-80
2022/10/26 05:32:10;;;;;;;80.10;41.80;;;7.20;99.90;;;;;;10401826;28;20030;-81
2022/10/26 05:37:11;;;;;;;167.63;56.00;;;7.20;99.90;;;;;;10406154;28;20025;-80
2022/10/26 05:42:12;;;;;;;73.47;41.37;;;7.40;99.90;;;;;;10405114;28;20037;-81
2022/10/26 05:47:12;;;;;;;101.87;52.97;;;7.40;99.90;;;;;;10410139;28;20397;-81
2022/10/26 05:52:13;;;;;;;282.60;76.77;;;7.30;99.90;;;;;;10409254;28;20032;-80
2022/10/26 05:57:14;;;;;;;476.37;102.43;;;7.50;99.90;;;;;;10408052;28;20406;-80
2022/10/26 06:02:37;;;;;;;116.07;51.80;;;7.50;99.90;;;;;;10409016;28;20048;-81
2022/10/26 06:07:38;;;;;;;144.37;51.00;;;7.50;99.90;;;;;;10403585;28;20049;-81
2022/10/26 06:12:39;;;;;;;124.63;47.00;;;7.40;99.90;;;;;;10404765;28;20397;-79
2022/10/26 06:17:57;;;;;;;96.73;41.50;;;7.30;99.90;;;;;;10408774;28;20052;-79
2022/10/26 06:23:16;;;;;;;63.53;34.50;;;7.20;99.90;;;;;;10391526;28;20393;-79
2022/10/26 06:28:26;;;;;;;84.70;39.33;;;7.20;99.90;;;;;;10408792;28;20401;-82
2022/10/26 06:33:28;;;;;;;60.80;34.37;;;7.30;99.90;;;;;;10408517;28;20109;-80
2022/10/26 06:38:33;;;;;;;58.90;33.00;;;7.40;99.90;;;;;;10403473;28;20033;-79
2022/10/26 06:43:34;;;;;;;56.97;34.10;;;7.50;99.90;;;;;;10406144;28;20493;-80
2022/10/26 06:48:56;;;;;;;68.80;38.03;;;7.60;99.90;;;;;;10406314;28;20041;-80
2022/10/26 06:54:14;;;;;;;85.07;47.13;;;7.80;99.90;;;;;;10403309;28;20026;-80
2022/10/26 06:59:30;;;;;;;84.17;47.20;;;7.90;99.90;;;;;;10408231;28;20484;-83
2022/10/26 07:04:30;;;;;;;77.97;45.37;;;8.10;99.90;;;;;;10403982;28;20045;-80
2022/10/26 07:09:31;;;;;;;77.57;46.20;;;8.30;99.90;;;;;;10402905;28;20049;-82
2022/10/26 07:14:32;;;;;;;75.87;45.23;;;8.60;99.90;;;;;;10406690;28;20092;-81
2022/10/26 07:19:32;;;;;;;74.30;43.87;;;8.80;99.90;;;;;;10398447;28;20029;-79
2022/10/26 07:24:33;;;;;;;70.78;43.55;;;9.10;99.90;;;;;;10394619;28;20380;-82
2022/10/26 07:29:34;;;;;;;75.93;44.03;;;9.40;99.90;;;;;;10400515;28;20567;-80
2022/10/26 07:34:34;;;;;;;80.00;46.70;;;9.80;99.90;;;;;;10391901;28;20064;-82
2022/10/26 07:39:35;;;;;;;66.50;41.50;;;10.10;99.90;;;;;;10406040;28;20396;-81
2022/10/26 07:44:35;;;;;;;71.68;40.72;;;10.50;99.90;;;;;;10393103;28;20040;-82
2022/10/26 07:49:36;;;;;;;63.47;40.40;;;10.80;99.90;;;;;;10389618;28;20033;-81
2022/10/26 07:54:37;;;;;;;60.63;38.92;;;11.20;99.90;;;;;;10405326;28;20033;-82
2022/10/26 07:59:37;;;;;;;62.45;38.75;;;11.50;99.90;;;;;;10403642;28;20409;-81
2022/10/26 08:04:38;;;;;;;62.13;38.65;;;11.80;99.90;;;;;;10405631;28;20117;-81
2022/10/26 08:09:39;;;;;;;56.10;34.72;;;12.10;99.90;;;;;;10404344;28;20037;-82
2022/10/26 08:14:39;;;;;;;58.95;35.97;;;12.40;99.90;;;;;;10405434;28;20029;-81
2022/10/26 08:19:40;;;;;;;59.13;37.10;;;12.70;99.90;;;;;;10405478;28;20037;-82
2022/10/26 08:24:42;;;;;;;49.97;33.28;;;13.00;99.90;;;;;;10404884;28;20030;-82
2022/10/26 08:29:43;;;;;;;52.35;33.22;;;13.30;99.90;;;;;;10403753;28;20040;-83
2022/10/26 08:34:44;;;;;;;51.92;32.15;;;13.40;99.90;;;;;;10402857;28;20036;-81
2022/10/26 08:39:44;;;;;;;48.25;31.45;;;13.70;99.90;;;;;;10404808;28;20034;-81
2022/10/26 08:44:47;;;;;;;45.53;29.75;;;13.90;99.90;;;;;;10404113;28;20025;-81
2022/10/26 08:50:00;;;;;;;44.88;30.20;;;14.20;99.90;;;;;;10404497;28;20037;-81
2022/10/26 08:55:02;;;;;;;47.67;29.52;;;14.40;99.90;;;;;;10404520;28;20025;-81
2022/10/26 09:00:16;;;;;;;43.53;29.48;;;14.60;99.90;;;;;;10403514;28;20528;-82
2022/10/26 09:05:23;;;;;;;37.92;26.08;;;14.80;99.90;;;;;;10408685;28;20025;-81
2022/10/26 09:10:38;;;;;;;39.17;27.15;;;15.00;99.90;;;;;;10411995;28;20140;-82
2022/10/26 09:16:16;;;;;;;37.38;24.50;;;15.10;99.90;;;;;;10397760;28;20033;-81
2022/10/26 09:21:24;;;;;;;44.75;28.20;;;15.40;99.90;;;;;;10397674;28;20061;-84
2022/10/26 09:26:33;;;;;;;40.80;28.05;;;15.60;99.90;;;;;;10392398;28;20026;-80
2022/10/26 09:31:39;;;;;;;34.88;23.38;;;15.80;99.90;;;;;;10399682;28;20025;-80
2022/10/26 09:36:39;;;;;;;35.65;22.40;;;16.00;99.90;;;;;;10408554;28;20610;-81
2022/10/26 09:41:50;;;;;;;31.45;20.35;;;16.20;99.90;;;;;;10410154;28;20034;-83
2022/10/26 09:47:19;;;;;;;25.65;15.88;;;16.30;99.90;;;;;;10405100;28;20017;-80
2022/10/26 09:52:20;;;;;;;28.77;15.63;;;16.50;99.90;;;;;;10404971;28;20083;-80
2022/10/26 09:57:21;;;;;;;29.55;18.27;;;16.60;99.90;;;;;;10402613;28;20048;-80
2022/10/26 10:02:45;;;;;;;37.65;20.58;;;16.70;99.90;;;;;;10409079;28;20033;-80
2022/10/26 10:07:46;;;;;;;39.03;20.85;;;16.90;99.90;;;;;;10402486;28;20541;-84
2022/10/26 10:12:51;;;;;;;33.47;19.27;;;17.00;99.90;;;;;;10404827;28;20047;-82
2022/10/26 10:17:54;;;;;;;31.97;18.13;;;17.00;99.90;;;;;;10401310;28;20451;-79
2022/10/26 10:23:00;;;;;;;28.98;18.15;;;17.20;99.90;;;;;;10406290;28;20029;-81
2022/10/26 10:28:01;;;;;;;27.20;14.45;;;17.40;99.90;;;;;;10408558;28;20036;-81
2022/10/26 10:33:09;;;;;;;17.45;11.18;;;17.40;99.90;;;;;;10408592;28;20026;-81
2022/10/26 10:38:17;;;;;;;18.98;10.52;;;17.40;99.90;;;;;;10408551;28;20041;-84
2022/10/26 10:43:18;;;;;;;19.00;10.27;;;17.50;99.90;;;;;;10409421;28;20071;-81
2022/10/26 10:48:28;;;;;;;23.27;10.80;;;17.40;99.90;;;;;;10406405;28;20106;-81
2022/10/26 10:53:57;;;;;;;17.58;7.50;;;17.60;99.90;;;;;;10408344;28;20029;-80
2022/10/26 10:58:58;;;;;;;10.70;6.60;;;17.70;99.90;;;;;;10399714;28;20133;-82
2022/10/26 11:04:21;;;;;;;11.93;6.38;;;17.70;99.90;;;;;;10407011;28;20021;-83
2022/10/26 11:09:26;;;;;;;17.40;6.82;;;17.80;99.90;;;;;;10393178;28;20135;-82
2022/10/26 11:14:29;;;;;;;;;;;17.80;99.90;;;;;;10407691;28;20026;-81
2022/10/26 11:19:35;;;;;;;10.45;5.20;;;17.90;99.90;;;;;;10406634;28;20431;-81
2022/10/26 11:24:35;;;;;;;11.15;4.70;;;18.00;99.90;;;;;;10407437;28;20040;-81
2022/10/26 11:29:44;;;;;;;7.03;4.53;;;18.00;99.90;;;;;;10406064;28;20022;-83
2022/10/26 11:34:59;;;;;;;11.38;5.05;;;18.20;99.90;;;;;;10406365;28;20680;-81
2022/10/26 11:40:01;;;;;;;5.20;4.05;;;18.20;99.90;;;;;;10405841;28;20037;-82
2022/10/26 11:45:21;;;;;;;7.70;3.45;;;18.20;99.90;;;;;;10404869;28;20052;-82
2022/10/26 11:50:25;;;;;;;6.00;3.60;;;18.00;99.90;;;;;;10406938;28;20032;-83
2022/10/26 11:55:27;;;;;;;6.43;3.03;;;17.70;99.90;;;;;;10405877;28;20025;-84
2022/10/26 12:00:30;;;;;;;4.35;2.70;;;17.80;99.90;;;;;;10405417;28;20378;-83
2022/10/26 12:05:39;;;;;;;6.93;3.50;;;18.20;99.90;;;;;;10405701;28;20493;-82
2022/10/26 12:10:46;;;;;;;6.38;2.67;;;18.40;99.90;;;;;;10405368;28;20091;-81
2022/10/26 12:15:53;;;;;;;7.05;3.35;;;18.00;99.90;;;;;;10405470;28;20021;-81
2022/10/26 12:21:03;;;;;;;5.43;3.42;;;17.60;99.90;;;;;;10405250;28;20500;-81
2022/10/26 12:26:27;;;;;;;6.93;3.22;;;17.80;99.90;;;;;;10404756;28;20026;-84
2022/10/26 12:31:36;;;;;;;15.85;7.32;;;18.30;99.90;;;;;;10393867;28;20049;-80
2022/10/26 12:37:08;;;;;;;5.85;3.78;;;18.70;99.90;;;;;;10399743;28;20033;-81
2022/10/26 12:42:09;;;;;;;11.05;4.30;;;18.80;99.90;;;;;;10392179;28;20038;-83
2022/10/26 12:47:29;;;;;;;4.45;2.42;;;19.10;99.90;;;;;;10370802;28;20048;-80
2022/10/26 12:52:39;;;;;;;8.15;2.90;;;19.30;99.90;;;;;;10375094;28;20393;-82
2022/10/26 12:57:42;;;;;;;8.70;3.67;;;19.30;99.90;;;;;;10401691;28;20029;-82
2022/10/26 13:03:17;;;;;;;5.75;2.70;;;19.30;99.90;;;;;;10398365;28;20389;-83
2022/10/26 13:08:18;;;;;;;5.45;2.92;;;19.30;99.90;;;;;;10402291;28;20049;-81
2022/10/26 13:13:23;;;;;;;6.05;3.50;;;19.10;99.90;;;;;;10400326;28;20018;-80
2022/10/26 13:18:24;;;;;;;10.05;3.05;;;19.10;99.90;;;;;;10404098;28;20495;-85
2022/10/26 13:23:27;;;;;;;7.78;3.95;;;19.20;99.90;;;;;;10410723;28;20488;-82
2022/10/26 13:28:41;;;;;;;7.97;4.13;;;19.10;99.90;;;;;;10409437;28;20553;-80
2022/10/26 13:33:43;;;;;;;13.38;5.50;;;18.90;99.90;;;;;;10409643;28;20045;-81
2022/10/26 13:38:46;;;;;;;10.25;4.68;;;18.80;99.90;;;;;;10403390;28;20044;-80
2022/10/26 13:43:47;;;;;;;8.88;3.72;;;18.70;99.90;;;;;;10405775;28;20208;-82
2022/10/26 13:48:50;;;;;;;6.10;3.42;;;18.70;99.90;;;;;;10409590;28;20021;-84
2022/10/26 13:53:59;;;;;;;4.97;3.10;;;18.60;99.90;;;;;;10409019;28;20113;-86
2022/10/26 13:59:09;;;;;;;9.15;4.18;;;18.60;99.90;;;;;;10396230;28;20171;-81
2022/10/26 14:04:24;;;;;;;6.95;3.58;;;18.50;99.90;;;;;;10409203;28;20066;-80
2022/10/26 14:09:28;;;;;;;9.13;2.92;;;18.30;99.90;;;;;;10408417;28;20053;-80
2022/10/26 14:14:34;;;;;;;8.57;3.08;;;18.20;99.90;;;;;;10408500;28;20496;-83
2022/10/26 14:19:38;;;;;;;5.47;2.85;;;18.10;99.90;;;;;;10406604;28;20465;-80
2022/10/26 14:24:39;;;;;;;6.80;3.35;;;18.00;99.90;;;;;;10405932;28;20082;-82
2022/10/26 14:29:40;;;;;;;8.10;3.50;;;17.90;99.90;;;;;;10402909;28;20029;-81
2022/10/26 14:34:41;;;;;;;9.25;4.57;;;17.90;99.90;;;;;;10403774;28;20056;-81
2022/10/26 14:39:45;;;;;;;25.38;13.48;;;17.70;99.90;;;;;;10407126;28;20428;-80
2022/10/26 14:44:46;;;;;;;16.10;8.02;;;17.60;99.90;;;;;;10393179;28;20095;-80
2022/10/26 14:49:46;;;;;;;4.50;2.00;;;17.40;99.90;;;;;;10393379;28;20029;-80
2022/10/26 14:55:02;;;;;;;13.43;2.80;;;17.30;99.90;;;;;;10401726;28;20025;-83
2022/10/26 15:00:24;;;;;;;11.95;5.00;;;17.00;99.90;;;;;;10387390;28;20041;-80
2022/10/26 15:05:32;;;;;;;7.85;2.80;;;16.70;99.90;;;;;;10397580;28;20485;-81
2022/10/26 15:10:38;;;;;;;5.32;2.75;;;16.20;99.90;;;;;;10393288;28;20289;-81
2022/10/26 15:15:38;;;;;;;5.10;2.22;;;15.80;99.90;;;;;;10389994;28;20017;-79
2022/10/26 15:20:46;;;;;;;8.02;2.80;;;15.50;99.90;;;;;;10407059;28;20037;-80
2022/10/26 15:25:59;;;;;;;5.50;2.15;;;15.00;99.90;;;;;;10395071;28;20046;-81
2022/10/26 15:31:03;;;;;;;6.60;2.80;;;14.70;99.90;;;;;;10399160;28;20021;-81
2022/10/26 15:36:07;;;;;;;4.97;2.50;;;14.40;99.90;;;;;;10398359;28;20397;-79
2022/10/26 15:41:15;;;;;;;5.75;2.92;;;14.10;99.90;;;;;;10400133;28;20076;-79
2022/10/26 15:46:16;;;;;;;11.18;4.72;;;13.80;99.90;;;;;;10394839;28;20064;-81
2022/10/26 15:51:17;;;;;;;24.00;12.35;;;13.60;99.90;;;;;;10406103;28;20109;-80
2022/10/26 15:56:20;;;;;;;38.05;18.60;;;13.40;99.90;;;;;;10404917;28;20043;-82
2022/10/26 16:01:24;;;;;;;36.33;18.27;;;13.20;99.90;;;;;;10397462;28;20571;-82
2022/10/26 16:06:33;;;;;;;26.67;11.10;;;13.10;99.90;;;;;;10405162;28;20057;-79
2022/10/26 16:11:34;;;;;;;17.88;8.77;;;13.00;99.90;;;;;;10399516;28;20032;-81
2022/10/26 16:16:34;;;;;;;14.43;7.55;;;12.80;99.90;;;;;;10397758;28;20033;-82
2022/10/26 16:21:35;;;;;;;13.32;6.72;;;12.60;99.90;;;;;;10393173;28;20049;-80
2022/10/26 16:26:35;;;;;;;10.85;6.35;;;12.50;99.90;;;;;;10393633;28;20033;-80
2022/10/26 16:31:36;;;;;;;14.38;6.10;;;12.40;99.90;;;;;;10401577;28;20030;-81
2022/10/26 16:36:37;;;;;;;13.75;6.75;;;12.30;99.90;;;;;;10398099;28;20391;-80
2022/10/26 16:41:38;;;;;;;18.55;8.65;;;12.20;99.90;;;;;;10395037;28;20040;-80
2022/10/26 16:46:38;;;;;;;26.58;11.55;;;12.20;99.90;;;;;;10388134;28;20778;-81
2022/10/26 16:51:39;;;;;;;25.77;13.38;;;12.20;99.90;;;;;;10397956;28;20553;-82
2022/10/26 16:56:41;;;;;;;21.55;11.98;;;12.20;99.90;;;;;;10399962;28;20037;-80
2022/10/26 17:01:41;;;;;;;24.35;12.75;;;12.20;99.90;;;;;;10383640;28;20707;-80
2022/10/26 17:06:42;;;;;;;28.55;14.95;;;12.20;99.90;;;;;;10393425;28;20177;-80
2022/10/26 17:11:42;;;;;;;34.95;16.75;;;12.20;99.90;;;;;;10387163;28;20033;-80
2022/10/26 17:16:43;;;;;;;29.20;15.70;;;12.10;99.90;;;;;;10391289;28;20040;-80
2022/10/26 17:21:43;;;;;;;25.60;13.20;;;12.00;99.90;;;;;;10394827;28;20045;-80
2022/10/26 17:26:44;;;;;;;33.70;17.92;;;11.70;99.90;;;;;;10391150;28;20037;-80
2022/10/26 17:31:44;;;;;;;41.22;23.08;;;11.50;99.90;;;;;;10403384;28;20042;-82
2022/10/26 17:36:45;;;;;;;36.03;21.40;;;11.30;99.90;;;;;;10398187;28;20041;-82
2022/10/26 17:41:46;;;;;;;46.25;26.05;;;11.20;99.90;;;;;;10397736;28;20048;-81
2022/10/26 17:46:47;;;;;;;40.83;25.10;;;11.10;99.90;;;;;;10397060;28;20393;-80
2022/10/26 17:51:47;;;;;;;44.33;26.63;;;11.00;99.90;;;;;;10399113;28;20486;-79
2022/10/26 17:56:48;;;;;;;72.75;41.15;;;10.90;99.90;;;;;;10409519;28;20037;-81
2022/10/26 18:01:48;;;;;;;58.72;33.40;;;10.80;99.90;;;;;;10404221;28;20049;-80
2022/10/26 18:06:49;;;;;;;39.63;21.95;;;10.70;99.90;;;;;;10396883;28;20072;-78
2022/10/26 18:11:49;;;;;;;48.60;28.67;;;10.70;99.90;;;;;;10406670;28;20108;-81
2022/10/26 18:16:50;;;;;;;68.30;42.30;;;10.70;99.90;;;;;;10399960;28;20038;-80
2022/10/26 18:21:50;;;;;;;70.68;44.17;;;10.70;99.90;;;;;;10393799;28;20147;-80
2022/10/26 18:26:51;;;;;;;65.82;38.03;;;10.80;99.90;;;;;;10390366;28;20108;-81
2022/10/26 18:31:51;;;;;;;58.08;34.53;;;10.70;99.90;;;;;;10402357;28;20055;-79
2022/10/26 18:36:52;;;;;;;62.85;36.58;;;10.50;99.90;;;;;;10400947;28;20538;-82
2022/10/26 18:41:53;;;;;;;85.38;50.55;;;10.40;99.90;;;;;;10405836;28;20049;-82
2022/10/26 18:46:54;;;;;;;111.45;65.70;;;10.40;99.90;;;;;;10398633;28;20554;-78
2022/10/26 18:51:54;;;;;;;96.50;55.78;;;10.40;99.90;;;;;;10403576;28;20030;-79
2022/10/26 18:56:55;;;;;;;79.40;48.78;;;10.50;99.90;;;;;;10392418;28;20067;-79
2022/10/26 19:01:55;;;;;;;73.90;45.10;;;10.50;99.90;;;;;;10393407;28;20090;-80
2022/10/26 19:06:56;;;;;;;67.70;40.05;;;10.50;99.90;;;;;;10404586;28;20041;-79
2022/10/26 19:11:57;;;;;;;72.50;37.08;;;10.50;99.90;;;;;;10404195;28;20068;-81
2022/10/26 19:16:58;;;;;;;64.13;35.72;;;10.40;99.90;;;;;;10385145;28;20038;-79
2022/10/26 19:21:59;;;;;;;62.92;34.83;;;10.30;99.90;;;;;;10395859;28;20091;-78
2022/10/26 19:27:00;;;;;;;52.20;28.35;;;10.20;99.90;;;;;;10386904;28;20032;-80
2022/10/26 19:32:01;;;;;;;55.33;29.38;;;10.00;99.90;;;;;;10397415;28;20025;-80
2022/10/26 19:37:04;;;;;;;62.15;36.13;;;10.00;99.90;;;;;;10398104;28;20036;-80
2022/10/26 19:42:04;;;;;;;64.32;38.22;;;10.00;99.90;;;;;;10391703;28;20211;-78
2022/10/26 19:47:05;;;;;;;84.88;47.47;;;9.80;99.90;;;;;;10390507;28;20083;-78
2022/10/26 19:52:05;;;;;;;134.95;82.78;;;9.70;99.90;;;;;;10401927;28;20466;-78
2022/10/26 19:57:06;;;;;;;109.13;60.67;;;9.50;99.90;;;;;;10395692;28;20021;-78
2022/10/26 20:02:07;;;;;;;91.57;53.00;;;9.60;99.90;;;;;;10391698;28;20067;-80
2022/10/26 20:07:07;;;;;;;72.03;43.75;;;9.60;99.90;;;;;;10401559;28;20392;-79
2022/10/26 20:12:12;;;;;;;78.20;47.10;;;9.60;99.90;;;;;;10398990;28;20698;-78
2022/10/26 20:17:13;;;;;;;56.47;36.07;;;9.50;99.90;;;;;;10396432;28;20056;-79
2022/10/26 20:22:13;;;;;;;89.70;53.57;;;9.30;99.90;;;;;;10386421;28;20390;-78
2022/10/26 20:27:14;;;;;;;80.60;44.80;;;9.10;99.90;;;;;;10387865;28;20034;-78
2022/10/26 20:32:14;;;;;;;87.53;49.23;;;9.10;99.90;;;;;;10388915;28;20037;-79
2022/10/26 20:37:15;;;;;;;86.53;49.80;;;9.00;99.90;;;;;;10390296;28;20033;-80
2022/10/26 20:42:26;;;;;;;102.00;57.47;;;9.00;99.90;;;;;;10395686;28;20037;-78
2022/10/26 20:47:27;;;;;;;104.93;60.00;;;9.10;99.90;;;;;;10387304;28;20509;-78
2022/10/26 20:52:47;;;;;;;103.03;56.77;;;9.10;99.90;;;;;;10389204;28;20030;-78
2022/10/26 20:57:57;;;;;;;91.33;49.60;;;9.10;99.90;;;;;;10389001;28;20576;-78
2022/10/26 21:02:58;;;;;;;95.80;52.17;;;9.00;99.90;;;;;;10392322;28;20482;-79
2022/10/26 21:07:58;;;;;;;82.50;46.00;;;9.00;99.90;;;;;;10397465;28;20123;-78
2022/10/26 21:13:00;;;;;;;96.50;51.10;;;8.90;99.90;;;;;;10400853;28;20409;-80
2022/10/26 21:18:01;;;;;;;92.60;50.93;;;9.00;99.90;;;;;;10397069;28;20041;-78
2022/10/26 21:23:01;;;;;;;112.93;59.50;;;8.80;99.90;;;;;;10404180;28;20393;-78
2022/10/26 21:28:03;;;;;;;111.17;59.97;;;8.80;99.90;;;;;;10409787;28;20049;-80
2022/10/26 21:33:03;;;;;;;108.70;57.87;;;8.90;99.90;;;;;;10410294;28;20038;-80
2022/10/26 21:38:04;;;;;;;108.03;57.90;;;8.80;99.90;;;;;;10410661;28;20030;-79
2022/10/26 21:43:04;;;;;;;94.43;56.10;;;8.70;99.90;;;;;;10410425;28;20100;-78
2022/10/26 21:48:05;;;;;;;113.97;61.03;;;8.70;99.90;;;;;;10408060;28;20436;-78
2022/10/26 21:53:05;;;;;;;115.13;63.17;;;8.70;99.90;;;;;;10410156;28;20032;-79
2022/10/26 21:58:06;;;;;;;147.77;75.03;;;8.60;99.90;;;;;;10402458;28;20530;-78
2022/10/26 22:03:06;;;;;;;124.03;70.47;;;8.70;99.90;;;;;;10405354;28;20037;-79
2022/10/26 22:08:07;;;;;;;109.27;62.10;;;8.60;99.90;;;;;;10405126;28;20049;-80
2022/10/26 22:13:07;;;;;;;118.50;69.57;;;8.60;99.90;;;;;;10407927;28;20031;-78
2022/10/26 22:18:08;;;;;;;95.00;57.33;;;8.50;99.90;;;;;;10392015;28;21145;-80
2022/10/26 22:23:09;;;;;;;112.50;66.43;;;8.40;99.90;;;;;;10407458;28;20033;-80
2022/10/26 22:28:10;;;;;;;141.53;72.80;;;8.40;99.90;;;;;;10408647;28;20033;-78
2022/10/26 22:33:12;;;;;;;129.00;69.63;;;8.30;99.90;;;;;;10402378;28;20033;-78
2022/10/26 22:38:12;;;;;;;138.47;72.93;;;8.10;99.90;;;;;;10408717;28;20091;-78
2022/10/26 22:43:13;;;;;;;106.90;62.50;;;7.90;99.90;;;;;;10406442;28;20539;-80
2022/10/26 22:48:13;;;;;;;103.27;58.83;;;7.90;99.90;;;;;;10407400;28;20055;-78
2022/10/26 22:53:14;;;;;;;102.53;56.43;;;7.90;99.90;;;;;;10408632;28;20076;-79
2022/10/26 22:58:14;;;;;;;113.90;62.43;;;8.00;99.90;;;;;;10406954;28;20121;-80
2022/10/26 23:03:15;;;;;;;102.73;57.20;;;8.00;99.90;;;;;;10401879;28;20037;-79
2022/10/26 23:08:15;;;;;;;96.73;56.33;;;8.00;99.90;;;;;;10403950;28;20052;-78
2022/10/26 23:13:16;;;;;;;132.93;63.93;;;8.00;99.90;;;;;;10407036;28;20029;-78
2022/10/26 23:18:17;;;;;;;94.13;54.97;;;8.00;99.90;;;;;;10405471;28;20032;-78
2022/10/26 23:23:17;;;;;;;112.03;59.63;;;7.90;99.90;;;;;;10406225;28;20116;-80
2022/10/26 23:28:18;;;;;;;109.07;57.70;;;7.90;99.90;;;;;;10406348;28;20562;-80
2022/10/26 23:33:18;;;;;;;93.20;53.43;;;7.90;99.90;;;;;;10406481;28;20029;-79
2022/10/26 23:38:19;;;;;;;86.80;45.60;;;7.80;99.90;;;;;;10405230;28;20021;-78
2022/10/26 23:43:20;;;;;;;81.77;47.07;;;7.90;99.90;;;;;;10385191;28;20037;-81
2022/10/26 23:48:21;;;;;;;101.07;50.73;;;7.80;99.90;;;;;;10401301;28;20032;-78
2022/10/26 23:53:24;;;;;;;83.73;46.57;;;7.70;99.90;;;;;;10405049;28;20034;-78
2022/10/26 23:58:24;;;;;;;97.13;50.03;;;7.60;99.90;;;;;;10405668;28;20064;-80
